createdAt,value
2018-09-16T00:01:02.649Z,751
2018-09-16T00:02:09.317Z,750
2018-09-16T00:03:16.263Z,751
2018-09-16T00:04:23.196Z,753
2018-09-16T00:05:30.420Z,751
2018-09-16T00:06:37.627Z,752
2018-09-16T00:07:44.840Z,753
2018-09-16T00:08:52.062Z,753
2018-09-16T00:09:59.269Z,752
2018-09-16T00:11:06.485Z,751
2018-09-16T00:12:13.691Z,752
2018-09-16T00:13:20.905Z,752
2018-09-16T00:14:27.915Z,752
2018-09-16T00:15:35.122Z,752
2018-09-16T00:16:42.331Z,751
2018-09-16T00:17:49.549Z,754
2018-09-16T00:18:56.755Z,753
2018-09-16T00:20:03.968Z,753
2018-09-16T00:21:11.185Z,753
2018-09-16T00:22:18.392Z,753
2018-09-16T00:23:25.605Z,753
2018-09-16T00:24:32.812Z,752
2018-09-16T00:25:40.023Z,753
2018-09-16T00:26:47.227Z,752
2018-09-16T00:27:54.441Z,753
2018-09-16T00:29:01.655Z,754
2018-09-16T00:30:08.862Z,754
2018-09-16T00:31:16.075Z,754
2018-09-16T00:32:23.008Z,753
2018-09-16T00:33:30.216Z,754
2018-09-16T00:34:37.434Z,754
2018-09-16T00:35:44.641Z,754
2018-09-16T00:36:51.851Z,753
2018-09-16T00:37:59.062Z,753
2018-09-16T00:39:06.273Z,754
2018-09-16T00:40:13.482Z,754
2018-09-16T00:41:20.689Z,754
2018-09-16T00:42:27.917Z,753
2018-09-16T00:43:35.133Z,754
2018-09-16T00:44:42.339Z,754
2018-09-16T00:45:49.555Z,754
2018-09-16T00:46:56.501Z,753
2018-09-16T00:48:03.442Z,754
2018-09-16T00:49:10.408Z,754
2018-09-16T00:50:17.628Z,754
2018-09-16T00:51:24.825Z,754
2018-09-16T00:52:32.048Z,754
2018-09-16T00:53:38.985Z,754
2018-09-16T00:54:46.195Z,754
2018-09-16T00:55:52.855Z,756
2018-09-16T00:56:59.799Z,754
2018-09-16T00:58:07.010Z,756
2018-09-16T00:59:14.220Z,756
2018-09-16T01:00:21.162Z,755
2018-09-16T01:01:28.373Z,755
2018-09-16T01:02:35.617Z,755
2018-09-16T01:03:42.778Z,754
2018-09-16T01:04:49.990Z,755
2018-09-16T01:05:57.198Z,755
2018-09-16T01:07:04.423Z,755
2018-09-16T01:08:11.628Z,755
2018-09-16T01:09:18.844Z,755
2018-09-16T01:10:26.061Z,755
2018-09-16T01:11:33.271Z,756
2018-09-16T01:12:40.477Z,755
2018-09-16T01:13:47.685Z,755
2018-09-16T01:14:54.903Z,755
2018-09-16T01:16:02.104Z,755
2018-09-16T01:17:09.319Z,754
2018-09-16T01:18:16.528Z,756
2018-09-16T01:19:23.738Z,754
2018-09-16T01:20:30.950Z,755
2018-09-16T01:21:38.164Z,757
2018-09-16T01:22:45.381Z,756
2018-09-16T01:23:52.601Z,756
2018-09-16T01:24:59.811Z,755
2018-09-16T01:26:07.023Z,756
2018-09-16T01:27:14.237Z,756
2018-09-16T01:28:21.462Z,756
2018-09-16T01:29:28.675Z,755
2018-09-16T01:30:35.886Z,757
2018-09-16T01:31:43.096Z,757
2018-09-16T01:32:50.308Z,757
2018-09-16T01:33:57.516Z,756
2018-09-16T01:35:04.734Z,759
2018-09-16T01:36:11.947Z,758
2018-09-16T01:37:18.884Z,759
2018-09-16T01:38:26.091Z,758
2018-09-16T01:39:33.299Z,757
2018-09-16T01:40:40.509Z,757
2018-09-16T01:41:47.722Z,758
2018-09-16T01:42:54.936Z,758
2018-09-16T01:44:02.148Z,757
2018-09-16T01:45:09.360Z,757
2018-09-16T01:46:16.568Z,758
2018-09-16T01:47:23.825Z,758
2018-09-16T01:48:31.019Z,757
2018-09-16T01:49:37.953Z,757
2018-09-16T01:50:45.159Z,757
2018-09-16T01:51:52.368Z,757
2018-09-16T01:52:59.580Z,757
2018-09-16T01:54:06.782Z,758
2018-09-16T01:55:13.723Z,757
2018-09-16T01:56:20.936Z,755
2018-09-16T01:57:28.141Z,758
2018-09-16T01:58:35.353Z,757
2018-09-16T01:59:42.285Z,758
2018-09-16T02:00:49.495Z,758
2018-09-16T02:01:56.704Z,758
2018-09-16T02:03:03.920Z,759
2018-09-16T02:04:11.129Z,757
2018-09-16T02:05:18.341Z,758
2018-09-16T02:06:25.557Z,757
2018-09-16T02:07:32.775Z,758
2018-09-16T02:08:39.984Z,758
2018-09-16T02:09:46.919Z,758
2018-09-16T02:10:54.130Z,758
2018-09-16T02:12:01.369Z,760
2018-09-16T02:13:08.573Z,758
2018-09-16T02:14:15.786Z,758
2018-09-16T02:15:23.004Z,760
2018-09-16T02:16:30.247Z,759
2018-09-16T02:17:37.185Z,760
2018-09-16T02:18:44.128Z,759
2018-09-16T02:19:51.334Z,760
2018-09-16T02:20:58.541Z,759
2018-09-16T02:22:05.750Z,759
2018-09-16T02:23:12.956Z,759
2018-09-16T02:24:20.170Z,759
2018-09-16T02:25:27.379Z,760
2018-09-16T02:26:34.583Z,758
2018-09-16T02:27:41.793Z,758
2018-09-16T02:28:48.999Z,758
2018-09-16T02:29:56.208Z,759
2018-09-16T02:31:03.416Z,758
2018-09-16T02:32:10.626Z,757
2018-09-16T02:33:17.836Z,758
2018-09-16T02:34:25.053Z,760
2018-09-16T02:35:32.263Z,757
2018-09-16T02:36:39.471Z,758
2018-09-16T02:37:46.681Z,759
2018-09-16T02:38:53.890Z,758
2018-09-16T02:40:01.098Z,759
2018-09-16T02:41:08.304Z,757
2018-09-16T02:42:15.517Z,757
2018-09-16T02:43:22.970Z,758
2018-09-16T02:44:30.028Z,759
2018-09-16T02:45:36.965Z,759
2018-09-16T02:46:44.248Z,759
2018-09-16T02:47:51.454Z,758
2018-09-16T02:48:58.670Z,758
2018-09-16T02:50:05.881Z,760
2018-09-16T02:51:13.093Z,759
2018-09-16T02:52:20.304Z,758
2018-09-16T02:53:27.520Z,758
2018-09-16T02:54:34.734Z,758
2018-09-16T02:55:41.949Z,759
2018-09-16T02:56:49.157Z,760
2018-09-16T02:57:56.367Z,760
2018-09-16T02:59:03.579Z,761
2018-09-16T03:00:10.791Z,760
2018-09-16T03:01:17.447Z,761
2018-09-16T03:02:24.653Z,759
2018-09-16T03:03:31.867Z,760
2018-09-16T03:04:53.730Z,758
2018-09-16T03:06:00.940Z,759
2018-09-16T03:07:07.866Z,759
2018-09-16T03:08:15.071Z,758
2018-09-16T03:09:22.281Z,758
2018-09-16T03:10:29.489Z,759
2018-09-16T03:11:36.999Z,758
2018-09-16T03:12:44.353Z,759
2018-09-16T03:13:51.558Z,757
2018-09-16T03:14:58.766Z,758
2018-09-16T03:16:05.700Z,755
2018-09-16T03:17:12.634Z,756
2018-09-16T03:18:19.570Z,755
2018-09-16T03:19:26.770Z,754
2018-09-16T03:20:33.973Z,755
2018-09-16T03:21:41.182Z,754
2018-09-16T03:22:48.110Z,754
2018-09-16T03:23:55.324Z,755
2018-09-16T03:25:02.530Z,755
2018-09-16T03:26:09.465Z,757
2018-09-16T03:27:16.401Z,756
2018-09-16T03:28:23.614Z,755
2018-09-16T03:29:30.827Z,755
2018-09-16T03:30:37.761Z,755
2018-09-16T03:31:45.025Z,756
2018-09-16T03:32:52.230Z,756
2018-09-16T03:33:59.443Z,756
2018-09-16T03:35:06.651Z,756
2018-09-16T03:36:13.858Z,757
2018-09-16T03:37:21.069Z,757
2018-09-16T03:38:28.275Z,756
2018-09-16T03:39:35.484Z,757
2018-09-16T03:40:42.691Z,756
2018-09-16T03:41:49.919Z,756
2018-09-16T03:42:57.127Z,755
2018-09-16T03:44:04.330Z,755
2018-09-16T03:45:11.542Z,755
2018-09-16T03:46:18.749Z,755
2018-09-16T03:47:25.966Z,756
2018-09-16T03:48:33.169Z,756
2018-09-16T03:49:40.382Z,756
2018-09-16T03:50:47.870Z,756
2018-09-16T03:51:55.192Z,758
2018-09-16T03:53:02.400Z,756
2018-09-16T03:54:09.607Z,757
2018-09-16T03:55:16.819Z,756
2018-09-16T03:56:24.027Z,756
2018-09-16T03:57:31.228Z,757
2018-09-16T03:58:38.440Z,758
2018-09-16T03:59:45.640Z,758
2018-09-16T04:00:52.848Z,758
2018-09-16T04:01:59.783Z,757
2018-09-16T04:03:06.996Z,758
2018-09-16T04:04:14.204Z,758
2018-09-16T04:05:21.408Z,759
2018-09-16T04:06:28.623Z,758
2018-09-16T04:07:35.830Z,758
2018-09-16T04:08:42.759Z,758
2018-09-16T04:09:49.968Z,758
2018-09-16T04:10:57.176Z,759
2018-09-16T04:12:04.385Z,758
2018-09-16T04:13:11.590Z,757
2018-09-16T04:14:18.847Z,758
2018-09-16T04:15:26.055Z,757
2018-09-16T04:16:33.267Z,759
2018-09-16T04:17:40.471Z,756
2018-09-16T04:18:47.739Z,757
2018-09-16T04:19:54.947Z,759
2018-09-16T04:21:02.460Z,759
2018-09-16T04:22:09.763Z,759
2018-09-16T04:23:16.974Z,758
2018-09-16T04:24:24.174Z,759
2018-09-16T04:25:31.110Z,760
2018-09-16T04:26:38.317Z,761
2018-09-16T04:27:45.533Z,761
2018-09-16T04:28:52.738Z,761
2018-09-16T04:29:59.953Z,761
2018-09-16T04:31:07.162Z,761
2018-09-16T04:32:14.372Z,761
2018-09-16T04:33:21.693Z,762
2018-09-16T04:34:28.956Z,762
2018-09-16T04:35:36.159Z,763
2018-09-16T04:36:43.373Z,765
2018-09-16T04:37:50.315Z,763
2018-09-16T04:38:57.520Z,762
2018-09-16T04:40:04.723Z,764
2018-09-16T04:41:11.951Z,764
2018-09-16T04:42:19.158Z,763
2018-09-16T04:43:26.363Z,764
2018-09-16T04:44:33.294Z,763
2018-09-16T04:45:40.510Z,765
2018-09-16T04:46:47.724Z,766
2018-09-16T04:47:54.934Z,766
2018-09-16T04:49:02.144Z,767
2018-09-16T04:50:09.074Z,766
2018-09-16T04:51:16.291Z,766
2018-09-16T04:52:23.497Z,767
2018-09-16T04:53:30.702Z,767
2018-09-16T04:54:37.907Z,768
2018-09-16T04:55:45.113Z,768
2018-09-16T04:56:52.322Z,768
2018-09-16T04:57:59.253Z,768
2018-09-16T04:59:06.462Z,769
2018-09-16T05:00:13.672Z,769
2018-09-16T05:01:20.884Z,768
2018-09-16T05:02:28.091Z,770
2018-09-16T05:03:35.314Z,769
2018-09-16T05:04:42.524Z,769
2018-09-16T05:05:49.733Z,769
2018-09-16T05:06:56.941Z,770
2018-09-16T05:08:04.144Z,771
2018-09-16T05:09:11.364Z,770
2018-09-16T05:10:18.584Z,770
2018-09-16T05:11:25.797Z,773
2018-09-16T05:12:33.006Z,773
2018-09-16T05:13:39.935Z,771
2018-09-16T05:14:47.139Z,773
2018-09-16T05:15:54.346Z,774
2018-09-16T05:17:01.560Z,773
2018-09-16T05:18:08.769Z,774
2018-09-16T05:19:15.976Z,774
2018-09-16T05:20:23.184Z,774
2018-09-16T05:21:30.393Z,774
2018-09-16T05:22:37.834Z,775
2018-09-16T05:23:45.143Z,775
2018-09-16T05:24:52.348Z,776
2018-09-16T05:25:59.566Z,776
2018-09-16T05:27:06.777Z,777
2018-09-16T05:28:13.978Z,776
2018-09-16T05:29:21.184Z,776
2018-09-16T05:30:28.114Z,776
2018-09-16T05:31:35.326Z,776
2018-09-16T05:32:42.537Z,776
2018-09-16T05:33:49.751Z,775
2018-09-16T05:34:56.958Z,776
2018-09-16T05:36:04.172Z,777
2018-09-16T05:37:11.377Z,777
2018-09-16T05:38:18.580Z,775
2018-09-16T05:39:25.520Z,774
2018-09-16T05:40:32.728Z,774
2018-09-16T05:41:39.658Z,774
2018-09-16T05:42:46.589Z,773
2018-09-16T05:43:53.799Z,772
2018-09-16T05:45:01.039Z,772
2018-09-16T05:46:07.969Z,772
2018-09-16T05:47:15.181Z,773
2018-09-16T05:48:22.387Z,773
2018-09-16T05:49:29.596Z,770
2018-09-16T05:50:36.522Z,770
2018-09-16T05:51:43.741Z,771
2018-09-16T05:52:51.415Z,771
2018-09-16T05:53:58.811Z,770
2018-09-16T05:55:06.022Z,771
2018-09-16T05:56:13.231Z,770
2018-09-16T05:57:20.439Z,769
2018-09-16T05:58:27.648Z,768
2018-09-16T05:59:34.803Z,769
2018-09-16T06:00:42.011Z,769
2018-09-16T06:01:49.225Z,768
2018-09-16T06:02:56.431Z,768
2018-09-16T06:04:03.642Z,768
2018-09-16T06:05:11.240Z,768
2018-09-16T06:06:18.652Z,769
2018-09-16T06:07:25.862Z,768
2018-09-16T06:08:33.066Z,767
2018-09-16T06:09:40.280Z,767
2018-09-16T06:10:47.652Z,768
2018-09-16T06:11:54.662Z,768
2018-09-16T06:13:01.874Z,767
2018-09-16T06:14:09.085Z,768
2018-09-16T06:15:16.020Z,767
2018-09-16T06:16:22.954Z,767
2018-09-16T06:17:30.166Z,767
2018-09-16T06:18:37.369Z,766
2018-09-16T06:19:44.303Z,767
2018-09-16T06:20:51.241Z,765
2018-09-16T06:21:58.448Z,765
2018-09-16T06:23:05.677Z,765
2018-09-16T06:24:12.885Z,764
2018-09-16T06:25:20.132Z,764
2018-09-16T06:26:27.338Z,762
2018-09-16T06:27:34.547Z,764
2018-09-16T06:28:41.761Z,765
2018-09-16T06:29:48.983Z,763
2018-09-16T06:30:55.945Z,763
2018-09-16T06:32:03.159Z,763
2018-09-16T06:33:10.370Z,763
2018-09-16T06:34:17.588Z,763
2018-09-16T06:35:24.799Z,762
2018-09-16T06:36:32.010Z,764
2018-09-16T06:37:39.227Z,761
2018-09-16T06:38:46.442Z,762
2018-09-16T06:39:53.648Z,761
2018-09-16T06:41:00.862Z,760
2018-09-16T06:42:08.073Z,762
2018-09-16T06:43:15.283Z,761
2018-09-16T06:44:22.491Z,761
2018-09-16T06:45:29.152Z,760
2018-09-16T06:46:36.347Z,760
2018-09-16T06:47:43.566Z,759
2018-09-16T06:48:50.514Z,759
2018-09-16T06:49:57.722Z,759
2018-09-16T06:51:05.376Z,758
2018-09-16T06:52:12.827Z,758
2018-09-16T06:53:20.041Z,758
2018-09-16T06:54:27.297Z,759
2018-09-16T06:55:34.507Z,759
2018-09-16T06:56:41.735Z,758
2018-09-16T06:57:48.944Z,759
2018-09-16T06:58:55.876Z,756
2018-09-16T07:00:03.092Z,758
2018-09-16T07:01:10.302Z,756
2018-09-16T07:02:17.514Z,758
2018-09-16T07:03:24.722Z,755
2018-09-16T07:04:31.657Z,757
2018-09-16T07:05:38.591Z,757
2018-09-16T07:06:45.797Z,755
2018-09-16T07:07:53.013Z,755
2018-09-16T07:09:00.229Z,757
2018-09-16T07:10:07.446Z,754
2018-09-16T07:11:14.668Z,757
2018-09-16T07:12:21.879Z,755
2018-09-16T07:13:29.085Z,755
2018-09-16T07:14:36.648Z,756
2018-09-16T07:15:43.888Z,756
2018-09-16T07:16:51.104Z,756
2018-09-16T07:17:58.536Z,757
2018-09-16T07:19:05.738Z,755
2018-09-16T07:20:13.057Z,755
2018-09-16T07:21:20.385Z,756
2018-09-16T07:22:27.600Z,755
2018-09-16T07:23:34.816Z,755
2018-09-16T07:24:42.032Z,756
2018-09-16T07:25:49.242Z,755
2018-09-16T07:26:56.760Z,754
2018-09-16T07:28:04.255Z,754
2018-09-16T07:29:11.474Z,752
2018-09-16T07:30:18.410Z,754
2018-09-16T07:31:25.624Z,753
2018-09-16T07:32:32.833Z,754
2018-09-16T07:33:40.209Z,753
2018-09-16T07:34:47.517Z,751
2018-09-16T07:35:54.735Z,754
2018-09-16T07:37:01.952Z,753
2018-09-16T07:38:09.166Z,752
2018-09-16T07:39:16.388Z,752
2018-09-16T07:40:23.601Z,752
2018-09-16T07:41:30.811Z,753
2018-09-16T07:42:38.029Z,753
2018-09-16T07:43:45.248Z,752
2018-09-16T07:44:52.182Z,753
2018-09-16T07:45:59.395Z,753
2018-09-16T07:47:06.610Z,752
2018-09-16T07:48:13.820Z,752
2018-09-16T07:49:21.028Z,751
2018-09-16T07:50:27.970Z,751
2018-09-16T07:51:35.183Z,751
2018-09-16T07:52:42.464Z,750
2018-09-16T07:53:49.718Z,749
2018-09-16T07:54:56.929Z,748
2018-09-16T07:56:04.154Z,749
2018-09-16T07:57:11.369Z,749
2018-09-16T07:58:18.598Z,748
2018-09-16T07:59:25.805Z,748
2018-09-16T08:00:33.129Z,747
2018-09-16T08:01:40.363Z,747
2018-09-16T08:02:47.574Z,747
2018-09-16T08:03:54.787Z,749
2018-09-16T08:05:02.000Z,749
2018-09-16T08:06:09.476Z,748
2018-09-16T08:07:16.894Z,747
2018-09-16T08:08:23.833Z,746
2018-09-16T08:09:31.050Z,746
2018-09-16T08:10:37.699Z,745
2018-09-16T08:11:44.916Z,746
2018-09-16T08:12:52.165Z,745
2018-09-16T08:13:59.375Z,746
2018-09-16T08:15:06.624Z,745
2018-09-16T08:16:13.839Z,746
2018-09-16T08:17:21.054Z,745
2018-09-16T08:18:28.269Z,746
2018-09-16T08:19:35.489Z,745
2018-09-16T08:20:42.705Z,745
2018-09-16T08:21:49.916Z,746
2018-09-16T08:22:57.123Z,744
2018-09-16T08:24:04.342Z,743
2018-09-16T08:25:11.558Z,743
2018-09-16T08:26:18.772Z,742
2018-09-16T08:27:25.987Z,742
2018-09-16T08:28:33.525Z,742
2018-09-16T08:29:40.969Z,740
2018-09-16T08:30:48.178Z,741
2018-09-16T08:31:55.121Z,741
2018-09-16T08:33:02.078Z,739
2018-09-16T08:34:09.293Z,742
2018-09-16T08:35:16.507Z,742
2018-09-16T08:36:23.721Z,742
2018-09-16T08:37:30.688Z,742
2018-09-16T08:38:37.917Z,742
2018-09-16T08:39:45.138Z,739
2018-09-16T08:40:52.358Z,741
2018-09-16T08:41:59.581Z,740
2018-09-16T08:43:06.797Z,739
2018-09-16T08:44:14.018Z,737
2018-09-16T08:45:21.233Z,737
2018-09-16T08:46:28.452Z,738
2018-09-16T08:47:35.673Z,735
2018-09-16T08:48:42.886Z,737
2018-09-16T08:49:50.105Z,739
2018-09-16T08:50:57.326Z,737
2018-09-16T08:52:04.609Z,736
2018-09-16T08:53:11.887Z,735
2018-09-16T08:54:19.109Z,735
2018-09-16T08:55:26.330Z,735
2018-09-16T08:56:33.581Z,736
2018-09-16T08:57:40.802Z,736
2018-09-16T08:58:47.741Z,737
2018-09-16T08:59:54.956Z,737
2018-09-16T09:01:01.902Z,736
2018-09-16T09:02:09.125Z,735
2018-09-16T09:03:16.345Z,737
2018-09-16T09:04:23.794Z,737
2018-09-16T09:05:31.122Z,737
2018-09-16T09:06:38.069Z,736
2018-09-16T09:07:45.020Z,735
2018-09-16T09:08:52.237Z,735
2018-09-16T09:09:59.485Z,733
2018-09-16T09:11:06.423Z,732
2018-09-16T09:12:13.372Z,731
2018-09-16T09:13:20.588Z,730
2018-09-16T09:14:27.820Z,730
2018-09-16T09:15:35.165Z,728
2018-09-16T09:16:42.124Z,728
2018-09-16T09:17:49.069Z,727
2018-09-16T09:18:56.299Z,729
2018-09-16T09:20:03.509Z,729
2018-09-16T09:21:10.726Z,729
2018-09-16T09:22:17.950Z,729
2018-09-16T09:23:25.458Z,730
2018-09-16T09:24:32.816Z,727
2018-09-16T09:25:40.039Z,727
2018-09-16T09:26:47.249Z,726
2018-09-16T09:27:54.473Z,729
2018-09-16T09:29:01.884Z,728
2018-09-16T09:30:09.224Z,728
2018-09-16T09:31:16.452Z,728
2018-09-16T09:32:23.661Z,728
2018-09-16T09:33:30.610Z,726
2018-09-16T09:34:37.858Z,725
2018-09-16T09:35:45.315Z,725
2018-09-16T09:36:52.648Z,724
2018-09-16T09:37:59.950Z,723
2018-09-16T09:39:07.165Z,722
2018-09-16T09:40:14.120Z,721
2018-09-16T09:41:21.337Z,719
2018-09-16T09:42:28.556Z,720
2018-09-16T09:43:35.791Z,721
2018-09-16T09:44:43.035Z,721
2018-09-16T09:45:50.258Z,720
2018-09-16T09:46:57.499Z,719
2018-09-16T09:48:04.719Z,719
2018-09-16T09:49:26.585Z,718
2018-09-16T09:50:33.816Z,719
2018-09-16T09:51:41.037Z,721
2018-09-16T09:52:48.259Z,722
2018-09-16T09:53:55.483Z,721
2018-09-16T09:55:02.439Z,719
2018-09-16T09:56:09.663Z,720
2018-09-16T09:57:16.890Z,721
2018-09-16T09:58:24.116Z,722
2018-09-16T09:59:31.338Z,721
2018-09-16T10:00:38.562Z,720
2018-09-16T10:01:45.510Z,717
2018-09-16T10:02:52.767Z,716
2018-09-16T10:03:59.711Z,716
2018-09-16T10:05:06.937Z,716
2018-09-16T10:06:14.502Z,710
2018-09-16T10:07:21.891Z,709
2018-09-16T10:08:28.860Z,706
2018-09-16T10:09:36.080Z,708
2018-09-16T10:10:43.296Z,704
2018-09-16T10:11:50.525Z,704
2018-09-16T10:12:57.750Z,702
2018-09-16T10:14:04.981Z,703
2018-09-16T10:15:12.203Z,696
2018-09-16T10:16:19.154Z,695
2018-09-16T10:17:26.098Z,694
2018-09-16T10:18:33.359Z,690
2018-09-16T10:19:40.588Z,687
2018-09-16T10:20:47.800Z,690
2018-09-16T10:21:54.748Z,689
2018-09-16T10:23:01.977Z,690
2018-09-16T10:24:09.545Z,688
2018-09-16T10:25:16.721Z,687
2018-09-16T10:26:23.942Z,683
2018-09-16T10:27:31.163Z,682
2018-09-16T10:28:38.388Z,676
2018-09-16T10:29:45.614Z,677
2018-09-16T10:30:52.829Z,681
2018-09-16T10:31:59.781Z,683
2018-09-16T10:33:06.999Z,680
2018-09-16T10:34:14.221Z,677
2018-09-16T10:35:21.446Z,677
2018-09-16T10:36:28.674Z,673
2018-09-16T10:37:35.905Z,671
2018-09-16T10:38:43.209Z,669
2018-09-16T10:39:50.505Z,673
2018-09-16T10:40:57.465Z,677
2018-09-16T10:42:04.688Z,676
2018-09-16T10:43:11.902Z,673
2018-09-16T10:44:19.140Z,671
2018-09-16T10:45:26.359Z,679
2018-09-16T10:46:33.583Z,678
2018-09-16T10:47:40.818Z,679
2018-09-16T10:49:02.423Z,673
2018-09-16T10:50:09.654Z,668
2018-09-16T10:51:16.884Z,666
2018-09-16T10:52:24.101Z,665
2018-09-16T10:53:31.055Z,666
2018-09-16T10:54:38.275Z,666
2018-09-16T10:55:45.518Z,663
2018-09-16T10:56:52.463Z,660
2018-09-16T10:57:59.680Z,671
2018-09-16T10:59:06.904Z,677
2018-09-16T11:00:14.133Z,675
2018-09-16T11:01:21.372Z,677
2018-09-16T11:02:28.592Z,678
2018-09-16T11:03:35.824Z,670
2018-09-16T11:04:42.497Z,662
2018-09-16T11:05:49.715Z,663
2018-09-16T11:06:56.945Z,666
2018-09-16T11:08:04.461Z,671
2018-09-16T11:09:11.689Z,673
2018-09-16T11:10:18.924Z,670
2018-09-16T11:11:26.135Z,672
2018-09-16T11:12:33.365Z,670
2018-09-16T11:13:40.602Z,673
2018-09-16T11:14:47.572Z,673
2018-09-16T11:15:54.995Z,668
2018-09-16T11:17:02.416Z,667
2018-09-16T11:18:09.633Z,666
2018-09-16T11:19:16.871Z,661
2018-09-16T11:20:24.091Z,659
2018-09-16T11:21:31.325Z,659
2018-09-16T11:22:38.271Z,655
2018-09-16T11:23:45.493Z,658
2018-09-16T11:24:52.954Z,659
2018-09-16T11:26:00.164Z,656
2018-09-16T11:27:07.394Z,660
2018-09-16T11:28:14.615Z,669
2018-09-16T11:29:21.844Z,673
2018-09-16T11:30:29.070Z,670
2018-09-16T11:31:36.294Z,666
2018-09-16T11:32:43.514Z,657
2018-09-16T11:33:50.737Z,657
2018-09-16T11:34:57.967Z,664
2018-09-16T11:36:05.197Z,665
2018-09-16T11:37:12.427Z,670
2018-09-16T11:38:19.657Z,670
2018-09-16T11:39:26.877Z,664
2018-09-16T11:40:34.108Z,668
2018-09-16T11:41:41.344Z,666
2018-09-16T11:42:48.568Z,668
2018-09-16T11:43:55.789Z,667
2018-09-16T11:45:02.742Z,664
2018-09-16T11:46:09.965Z,661
2018-09-16T11:47:16.918Z,661
2018-09-16T11:48:24.142Z,661
2018-09-16T11:49:31.098Z,652
2018-09-16T11:50:38.321Z,657
2018-09-16T11:51:45.535Z,655
2018-09-16T11:52:52.663Z,653
2018-09-16T11:53:59.611Z,653
2018-09-16T11:55:06.848Z,658
2018-09-16T11:56:14.054Z,657
2018-09-16T11:57:21.286Z,653
2018-09-16T11:58:28.504Z,657
2018-09-16T11:59:35.454Z,651
2018-09-16T12:00:42.402Z,648
2018-09-16T12:01:49.652Z,651
2018-09-16T12:02:56.903Z,646
2018-09-16T12:04:04.130Z,647
2018-09-16T12:05:11.435Z,643
2018-09-16T12:06:18.391Z,644
2018-09-16T12:07:25.616Z,644
2018-09-16T12:08:32.570Z,645
2018-09-16T12:09:39.796Z,642
2018-09-16T12:10:47.025Z,642
2018-09-16T12:11:54.241Z,645
2018-09-16T12:13:01.467Z,658
2018-09-16T12:14:08.692Z,663
2018-09-16T12:15:15.966Z,657
2018-09-16T12:16:23.198Z,655
2018-09-16T12:17:30.412Z,652
2018-09-16T12:18:37.644Z,647
2018-09-16T12:19:44.866Z,644
2018-09-16T12:20:52.089Z,646
2018-09-16T12:21:59.313Z,646
2018-09-16T12:23:06.534Z,641
2018-09-16T12:24:13.754Z,640
2018-09-16T12:25:20.970Z,643
2018-09-16T12:26:28.188Z,644
2018-09-16T12:27:35.414Z,643
2018-09-16T12:28:42.641Z,644
2018-09-16T12:29:49.863Z,641
2018-09-16T12:30:57.674Z,643
2018-09-16T12:32:05.028Z,641
2018-09-16T12:33:12.249Z,648
2018-09-16T12:34:19.516Z,656
2018-09-16T12:35:26.458Z,663
2018-09-16T12:36:33.680Z,657
2018-09-16T12:37:40.912Z,654
2018-09-16T12:38:47.852Z,652
2018-09-16T12:39:55.077Z,653
2018-09-16T12:41:02.299Z,648
2018-09-16T12:42:09.251Z,642
2018-09-16T12:43:16.199Z,640
2018-09-16T12:44:23.428Z,651
2018-09-16T12:45:30.657Z,652
2018-09-16T12:46:37.884Z,652
2018-09-16T12:47:45.048Z,656
2018-09-16T12:48:52.272Z,662
2018-09-16T12:49:59.490Z,663
2018-09-16T12:51:06.449Z,659
2018-09-16T12:52:13.671Z,653
2018-09-16T12:53:20.898Z,653
2018-09-16T12:54:28.116Z,646
2018-09-16T12:55:35.424Z,640
2018-09-16T12:56:42.647Z,638
2018-09-16T12:57:49.919Z,635
2018-09-16T12:58:57.131Z,638
2018-09-16T13:00:04.352Z,648
2018-09-16T13:01:11.575Z,655
2018-09-16T13:02:18.793Z,655
2018-09-16T13:03:26.016Z,657
2018-09-16T13:04:33.595Z,658
2018-09-16T13:05:40.954Z,655
2018-09-16T13:06:48.172Z,661
2018-09-16T13:07:55.390Z,661
2018-09-16T13:09:02.621Z,655
2018-09-16T13:10:09.844Z,651
2018-09-16T13:11:17.061Z,652
2018-09-16T13:12:24.279Z,652
2018-09-16T13:13:31.571Z,655
2018-09-16T13:14:38.526Z,660
2018-09-16T13:15:45.747Z,658
2018-09-16T13:16:52.963Z,656
2018-09-16T13:18:00.188Z,651
2018-09-16T13:19:07.416Z,657
2018-09-16T13:20:14.635Z,661
2018-09-16T13:21:21.860Z,649
2018-09-16T13:22:29.081Z,644
2018-09-16T13:23:36.305Z,647
2018-09-16T13:24:43.522Z,650
2018-09-16T13:25:50.748Z,646
2018-09-16T13:26:57.973Z,641
2018-09-16T13:28:05.196Z,645
2018-09-16T13:29:12.415Z,646
2018-09-16T13:30:19.675Z,653
2018-09-16T13:31:26.899Z,661
2018-09-16T13:32:34.114Z,655
2018-09-16T13:33:41.061Z,645
2018-09-16T13:34:48.010Z,639
2018-09-16T13:35:55.229Z,634
2018-09-16T13:37:02.446Z,631
2018-09-16T13:38:09.755Z,633
2018-09-16T13:39:16.697Z,643
2018-09-16T13:40:23.655Z,650
2018-09-16T13:41:30.876Z,665
2018-09-16T13:42:38.099Z,658
2018-09-16T13:43:45.322Z,658
2018-09-16T13:44:52.549Z,660
2018-09-16T13:45:59.494Z,666
2018-09-16T13:47:06.433Z,659
2018-09-16T13:48:13.659Z,657
2018-09-16T13:49:20.882Z,651
2018-09-16T13:50:28.108Z,649
2018-09-16T13:51:35.327Z,642
2018-09-16T13:52:42.281Z,643
2018-09-16T13:53:49.238Z,637
2018-09-16T13:54:56.459Z,639
2018-09-16T13:56:03.684Z,639
2018-09-16T13:57:10.950Z,635
2018-09-16T13:58:18.190Z,637
2018-09-16T13:59:25.147Z,650
2018-09-16T14:00:32.374Z,657
2018-09-16T14:01:39.591Z,656
2018-09-16T14:02:46.808Z,657
2018-09-16T14:03:54.027Z,654
2018-09-16T14:05:01.250Z,652
2018-09-16T14:06:08.468Z,650
2018-09-16T14:07:15.684Z,654
2018-09-16T14:08:22.910Z,655
2018-09-16T14:09:30.211Z,658
2018-09-16T14:10:37.505Z,661
2018-09-16T14:11:44.732Z,659
2018-09-16T14:12:51.416Z,651
2018-09-16T14:13:58.621Z,648
2018-09-16T14:15:05.847Z,648
2018-09-16T14:16:12.519Z,645
2018-09-16T14:17:19.754Z,650
2018-09-16T14:18:26.980Z,646
2018-09-16T14:19:33.929Z,642
2018-09-16T14:20:41.152Z,647
2018-09-16T14:21:48.378Z,640
2018-09-16T14:22:55.322Z,641
2018-09-16T14:24:02.547Z,645
2018-09-16T14:25:09.493Z,640
2018-09-16T14:26:16.717Z,638
2018-09-16T14:27:23.671Z,639
2018-09-16T14:28:30.891Z,633
2018-09-16T14:29:38.116Z,639
2018-09-16T14:30:45.334Z,640
2018-09-16T14:31:52.552Z,648
2018-09-16T14:32:59.776Z,650
2018-09-16T14:34:06.736Z,645
2018-09-16T14:35:13.712Z,647
2018-09-16T14:36:20.699Z,646
2018-09-16T14:37:27.930Z,643
2018-09-16T14:38:34.890Z,642
2018-09-16T14:39:42.111Z,645
2018-09-16T14:40:49.067Z,653
2018-09-16T14:41:56.302Z,657
2018-09-16T14:43:03.244Z,653
2018-09-16T14:44:10.464Z,661
2018-09-16T14:45:17.689Z,660
2018-09-16T14:46:24.911Z,660
2018-09-16T14:47:31.623Z,651
2018-09-16T14:48:38.841Z,645
2018-09-16T14:49:45.786Z,641
2018-09-16T14:50:52.729Z,643
2018-09-16T14:51:59.953Z,639
2018-09-16T14:53:07.179Z,637
2018-09-16T14:54:14.399Z,635
2018-09-16T14:55:21.624Z,635
2018-09-16T14:56:28.850Z,641
2018-09-16T14:57:36.079Z,643
2018-09-16T14:58:43.031Z,647
2018-09-16T14:59:50.257Z,645
2018-09-16T15:00:57.482Z,646
2018-09-16T15:02:04.425Z,651
2018-09-16T15:03:11.642Z,650
2018-09-16T15:04:18.863Z,645
2018-09-16T15:05:26.082Z,646
2018-09-16T15:06:33.297Z,646
2018-09-16T15:07:40.640Z,642
2018-09-16T15:08:48.026Z,641
2018-09-16T15:09:55.255Z,640
2018-09-16T15:11:02.478Z,640
2018-09-16T15:12:09.711Z,638
2018-09-16T15:13:17.228Z,640
2018-09-16T15:14:24.570Z,640
2018-09-16T15:15:31.829Z,638
2018-09-16T15:16:39.076Z,639
2018-09-16T15:17:46.283Z,646
2018-09-16T15:18:53.503Z,654
2018-09-16T15:20:00.743Z,658
2018-09-16T15:21:08.263Z,653
2018-09-16T15:22:15.371Z,654
2018-09-16T15:23:22.593Z,656
2018-09-16T15:24:29.815Z,652
2018-09-16T15:25:37.038Z,648
2018-09-16T15:26:44.259Z,645